Thursday, September 20, 2018, 9:20 AM EDT
Back to Local

KPVD, Providence Green State Airport

Location: Warwick, RI, United States Lat: 41.733
Local Time: 9:20 AM EDT (13:20 GMT) Lon: -71.433
Time Zone: US/Eastern Elev: 55 ft

Show me the last for .
Show Decoded

2018-09-20 08:51 METAR KPVD 201251Z 02012KT 10SM SCT015 BKN065 17/14 A3021 RMK AO2 SLP231
                 T01720139 =
2018-09-20 08:33 METAR KPVD 201233Z 01011KT 10SM SCT013 SCT065 17/14 A3021 RMK AO2 T01720139 =
2018-09-20 07:51 METAR KPVD 201151Z 36010KT 10SM BKN012 BKN050 16/14 A3020 RMK AO2 SLP226
                 T01610139 10161 20144 53023 =
2018-09-20 06:51 METAR KPVD 201051Z 01006KT 10SM FEW005 SCT013 SCT300 15/13 A3016 RMK AO2 SLP214
                 T01500133 =
2018-09-20 06:37 METAR KPVD 201037Z 36006KT 10SM FEW005 SCT013 SCT300 14/13 A3016 RMK AO2
                 T01440133 =
2018-09-20 05:51 METAR KPVD 200951Z 36007KT 10SM FEW008 BKN013 14/13 A3015 RMK AO2 SLP209
                 T01440133 =
2018-09-20 05:41 METAR KPVD 200941Z 01006KT 10SM BKN013 14/13 A3014 =
2018-09-20 04:51 METAR KPVD 200851Z AUTO 34008KT 10SM FEW015 15/13 A3013 RMK AO2 SLP202 T01500133
                 50008 =
2018-09-20 04:46 METAR KPVD 200846Z AUTO 35008KT 10SM SCT016 15/13 A3013 RMK AO2 =
2018-09-20 04:07 METAR KPVD 200807Z AUTO 36008KT 10SM BKN015 15/13 A3013 RMK AO2 T01500133 =
2018-09-20 03:51 METAR KPVD 200751Z AUTO 36009KT 10SM SCT015 15/13 A3013 RMK AO2 SLP201 T01500133
                 =
2018-09-20 02:51 METAR KPVD 200651Z AUTO 05010KT 10SM BKN049 16/13 A3010 RMK AO2 SLP194 T01560133
                 =
2018-09-20 02:07 METAR KPVD 200607Z AUTO 04009KT 10SM SCT023 OVC050 16/13 A3011 RMK AO2 T01560133
                 =
2018-09-20 01:51 METAR KPVD 200551Z AUTO 04006KT 10SM BKN023 OVC050 16/13 A3011 RMK AO2 SLP197
                 T01560133 10156 20144 50007 =
2018-09-20 01:13 METAR KPVD 200513Z AUTO 36005KT 10SM SCT028 OVC049 16/13 A3011 RMK AO2 T01560133
                 =
2018-09-20 00:58 METAR KPVD 200458Z AUTO 02004KT 10SM BKN028 OVC049 16/13 A3012 =
2018-09-20 00:51 METAR KPVD 200451Z AUTO 35005KT 10SM BKN030 16/13 A3012 RMK AO2 SLP200 T01560133
                 402060144 =
2018-09-19 23:51 METAR KPVD 200351Z 01008KT 10SM FEW015 FEW030 SCT250 15/13 A3010 RMK AO2 SLP192
                 LAST T01500128 =
2018-09-19 22:51 METAR KPVD 200251Z 03009KT 10SM FEW014 SCT030 SCT250 16/13 A3009 RMK AO2 SLP189
                 T01560128 51013 =
2018-09-19 21:51 METAR KPVD 200151Z 02007KT 10SM FEW014 FEW030 SCT250 15/13 A3008 RMK AO2 SLP185
                 T01500128 =
2018-09-19 20:51 METAR KPVD 200051Z 03008KT 10SM FEW015 FEW040 SCT250 15/13 A3007 RMK AO2 SLP183
                 T01500133 =
2018-09-19 19:51 METAR KPVD 192351Z 04010KT 10SM FEW018 FEW250 16/13 A3005 RMK AO2 SLP176
                 T01560133 10200 20156 51025 =
2018-09-19 18:51 METAR KPVD 192251Z 07009KT 10SM FEW018 SCT038 BKN250 16/13 A3003 RMK AO2 SLP168
                 T01610133 =
2018-09-19 18:22 METAR KPVD 192222Z 04011KT 10SM SCT018 BKN030 BKN048 17/14 A3003 RMK AO2
                 T01720139 =
2018-09-19 17:51 METAR KPVD 192151Z 03012KT 10SM OVC019 17/14 A3002 RMK AO2 SLP164 T01720144 =
2018-09-19 16:51 METAR KPVD 192051Z 04011KT 10SM OVC017 19/15 A2998 RMK AO2 SLP151 T01890150
                 53007 =
2018-09-19 15:51 METAR KPVD 191951Z 04011KT 10SM OVC015 19/16 A2997 RMK AO2 SLP147 T01890156 =
2018-09-19 14:51 METAR KPVD 191851Z 02013KT 10SM OVC015 19/16 A2996 RMK AO2 SLP145 T01890156 =
2018-09-19 14:36 METAR KPVD 191836Z 02012KT 10SM OVC015 19/16 A2996 RMK AO2 T01890156 =
2018-09-19 14:23 METAR KPVD 191823Z 03010KT 10SM BKN014 OVC020 20/16 A2996 RMK AO2 T02000161 =
2018-09-19 13:51 METAR KPVD 191751Z 03013KT 10SM OVC015 19/16 A2996 RMK AO2 SLP144 T01940161
                 10206 20178 53004 =
2018-09-19 13:38 METAR KPVD 191738Z 04011KT 10SM OVC015 20/16 A2996 =
2018-09-19 13:01 METAR KPVD 191701Z 02012KT 10SM OVC014 19/16 A2995 RMK AO2 T01940161 =
2018-09-19 12:51 METAR KPVD 191651Z 02013KT 10SM OVC017 20/17 A2995 RMK AO2 SLP141 T02000167 =
2018-09-19 12:16 METAR KPVD 191616Z 03010KT 10SM OVC016 20/17 A2995 RMK AO2 T02000167 =
2018-09-19 11:51 METAR KPVD 191551Z 03012KT 10SM OVC014 19/17 A2995 RMK AO2 SLP141 T01940167 =
2018-09-19 10:51 METAR KPVD 191451Z 02012KT 10SM OVC012 18/17 A2995 RMK AO2 SLP139 T01830167
                 53022 =
2018-09-19 10:34 METAR KPVD 191434Z 02012KT 7SM OVC010 18/17 A2994 RMK AO2 T01780172 =
2018-09-19 09:51 METAR KPVD 191351Z 03010KT 10SM OVC008 18/17 A2992 RMK AO2 SLP131 T01780172 =

Support USWX by starting your Amazon purchase here.